createdAt,value
2022-09-03T00:00:08.482Z,40.07
2022-09-03T00:00:29.529Z,40.08
2022-09-03T00:00:50.583Z,40.11
2022-09-03T00:01:11.636Z,40.20
2022-09-03T00:01:32.776Z,40.24
2022-09-03T00:01:53.845Z,40.23
2022-09-03T00:02:16.686Z,40.23
2022-09-03T00:02:37.866Z,40.28
2022-09-03T00:02:58.969Z,40.35
2022-09-03T00:03:20.025Z,40.40
2022-09-03T00:03:41.077Z,40.40
2022-09-03T00:04:02.119Z,40.42
2022-09-03T00:04:25.843Z,40.55
2022-09-03T00:04:47.031Z,40.54
2022-09-03T00:05:08.078Z,40.56
2022-09-03T00:05:29.132Z,40.61
2022-09-03T00:05:50.182Z,40.69
2022-09-03T00:06:11.231Z,40.78
2022-09-03T00:06:32.292Z,40.91
2022-09-03T00:06:53.357Z,40.95
2022-09-03T00:07:14.413Z,40.95
2022-09-03T00:07:35.473Z,40.97
2022-09-03T00:07:56.519Z,41.05
2022-09-03T00:08:18.190Z,41.13
2022-09-03T00:08:40.722Z,41.14
2022-09-03T00:09:01.936Z,41.01
2022-09-03T00:09:22.983Z,40.98
2022-09-03T00:09:44.505Z,40.99
2022-09-03T00:10:05.581Z,40.89
2022-09-03T00:10:26.636Z,40.80
2022-09-03T00:10:47.701Z,40.81
2022-09-03T00:11:08.761Z,40.86
2022-09-03T00:11:29.927Z,41.00
2022-09-03T00:11:51.028Z,41.10
2022-09-03T00:12:12.725Z,41.23
2022-09-03T00:12:33.799Z,41.29
2022-09-03T00:12:55.988Z,41.34
2022-09-03T00:13:17.035Z,41.35
2022-09-03T00:13:38.096Z,41.28
2022-09-03T00:13:59.151Z,41.23
2022-09-03T00:14:20.217Z,41.06
2022-09-03T00:14:41.259Z,41.00
2022-09-03T00:15:02.316Z,41.03
2022-09-03T00:15:23.376Z,41.08
2022-09-03T00:15:44.479Z,41.05
2022-09-03T00:16:05.568Z,41.02
2022-09-03T00:16:26.797Z,41.00
2022-09-03T00:16:47.818Z,41.02
2022-09-03T00:17:08.883Z,41.03
2022-09-03T00:17:29.943Z,41.11
2022-09-03T00:17:50.987Z,41.19
2022-09-03T00:18:12.037Z,41.18
2022-09-03T00:18:33.081Z,41.21
2022-09-03T00:18:54.131Z,41.36
2022-09-03T00:19:15.176Z,41.48
2022-09-03T00:19:36.228Z,41.66
2022-09-03T00:19:57.279Z,41.83
2022-09-03T00:20:18.332Z,41.92
2022-09-03T00:20:39.378Z,41.95
2022-09-03T00:21:01.152Z,41.90
2022-09-03T00:21:22.238Z,41.84
2022-09-03T00:21:43.307Z,41.76
2022-09-03T00:22:04.366Z,41.69
2022-09-03T00:22:25.428Z,41.62
2022-09-03T00:22:46.514Z,41.46
2022-09-03T00:23:07.563Z,41.42
2022-09-03T00:23:28.609Z,41.45
2022-09-03T00:23:49.662Z,41.46
2022-09-03T00:24:12.801Z,41.46
2022-09-03T00:24:36.019Z,41.46
2022-09-03T00:24:57.076Z,41.50
2022-09-03T00:25:18.127Z,41.48
2022-09-03T00:25:39.178Z,41.36
2022-09-03T00:26:00.235Z,41.29
2022-09-03T00:26:21.279Z,41.18
2022-09-03T00:26:42.332Z,41.16
2022-09-03T00:27:03.502Z,41.17
2022-09-03T00:27:24.553Z,41.17
2022-09-03T00:27:45.603Z,41.19
2022-09-03T00:28:06.657Z,41.21
2022-09-03T00:28:27.716Z,41.23
2022-09-03T00:28:48.761Z,41.24
2022-09-03T00:29:09.818Z,41.27
2022-09-03T00:29:30.871Z,41.24
2022-09-03T00:29:51.926Z,41.20
2022-09-03T00:30:12.981Z,41.24
2022-09-03T00:30:38.197Z,41.26
2022-09-03T00:30:59.293Z,41.20
2022-09-03T00:31:20.346Z,41.19
2022-09-03T00:31:41.370Z,41.22
2022-09-03T00:32:02.415Z,41.36
2022-09-03T00:32:23.499Z,41.46
2022-09-03T00:32:44.545Z,41.46
2022-09-03T00:33:05.605Z,41.47
2022-09-03T00:33:26.654Z,41.45
2022-09-03T00:33:47.704Z,41.51
2022-09-03T00:34:08.766Z,41.61
2022-09-03T00:34:29.813Z,41.59
2022-09-03T00:34:50.886Z,41.58
2022-09-03T00:35:11.935Z,41.69
2022-09-03T00:35:32.985Z,41.73
2022-09-03T00:35:54.034Z,41.75
2022-09-03T00:36:15.094Z,41.78
2022-09-03T00:36:36.144Z,41.75
2022-09-03T00:36:57.207Z,41.68
2022-09-03T00:37:18.256Z,41.62
2022-09-03T00:37:39.895Z,41.65
2022-09-03T00:38:00.952Z,41.75
2022-09-03T00:38:22.059Z,41.79
2022-09-03T00:38:43.103Z,41.81
2022-09-03T00:39:04.161Z,41.72
2022-09-03T00:39:25.298Z,41.62
2022-09-03T00:39:46.353Z,41.66
2022-09-03T00:40:07.438Z,41.72
2022-09-03T00:40:28.489Z,41.69
2022-09-03T00:40:49.547Z,41.68
2022-09-03T00:41:10.606Z,41.68
2022-09-03T00:41:31.674Z,41.72
2022-09-03T00:41:52.720Z,41.68
2022-09-03T00:42:13.767Z,41.64
2022-09-03T00:42:34.822Z,41.67
2022-09-03T00:42:55.995Z,41.73
2022-09-03T00:43:17.046Z,41.77
2022-09-03T00:43:38.121Z,41.78
2022-09-03T00:43:59.159Z,41.79
2022-09-03T00:44:20.212Z,41.76
2022-09-03T00:44:41.261Z,41.72
2022-09-03T00:45:02.314Z,41.78
2022-09-03T00:45:23.365Z,41.75
2022-09-03T00:45:46.441Z,41.75
2022-09-03T00:46:07.553Z,41.76
2022-09-03T00:46:28.738Z,41.73
2022-09-03T00:46:49.751Z,41.80
2022-09-03T00:47:10.817Z,41.93
2022-09-03T00:47:31.877Z,41.95
2022-09-03T00:47:52.927Z,41.95
2022-09-03T00:48:13.979Z,42.07
2022-09-03T00:48:38.520Z,42.19
2022-09-03T00:49:00.378Z,42.37
2022-09-03T00:49:21.432Z,42.47
2022-09-03T00:49:42.496Z,42.44
2022-09-03T00:50:03.559Z,42.31
2022-09-03T00:50:24.613Z,42.23
2022-09-03T00:50:45.669Z,42.29
2022-09-03T00:51:06.720Z,42.28
2022-09-03T00:51:27.770Z,42.28
2022-09-03T00:51:48.821Z,42.29
2022-09-03T00:52:09.872Z,42.34
2022-09-03T00:52:33.606Z,42.42
2022-09-03T00:52:54.815Z,42.50
2022-09-03T00:53:15.885Z,42.51
2022-09-03T00:53:36.927Z,42.55
2022-09-03T00:53:57.977Z,42.63
2022-09-03T00:54:19.045Z,42.72
2022-09-03T00:54:40.094Z,42.75
2022-09-03T00:55:02.856Z,42.70
2022-09-03T00:55:23.915Z,42.71
2022-09-03T00:55:44.969Z,42.81
2022-09-03T00:56:06.030Z,42.92
2022-09-03T00:56:27.081Z,43.02
2022-09-03T00:56:48.128Z,43.21
2022-09-03T00:57:09.181Z,43.31
2022-09-03T00:57:30.230Z,43.27
2022-09-03T00:57:51.409Z,43.12
2022-09-03T00:58:12.456Z,42.97
2022-09-03T00:58:33.506Z,42.87
2022-09-03T00:58:54.566Z,42.93
2022-09-03T00:59:15.613Z,43.02
2022-09-03T00:59:36.658Z,43.06
2022-09-03T00:59:57.713Z,43.10
2022-09-03T01:00:18.766Z,43.18
2022-09-03T01:00:39.822Z,43.18
2022-09-03T01:01:00.876Z,43.18
2022-09-03T01:01:22.057Z,43.29
2022-09-03T01:01:43.283Z,43.36
2022-09-03T01:02:04.523Z,43.35
2022-09-03T01:02:25.723Z,43.33
2022-09-03T01:02:47.077Z,43.36
2022-09-03T01:03:08.173Z,43.37
2022-09-03T01:03:29.221Z,43.39
2022-09-03T01:03:50.283Z,43.46
2022-09-03T01:04:11.333Z,43.42
2022-09-03T01:04:32.387Z,43.40
2022-09-03T01:04:53.436Z,43.38
2022-09-03T01:05:14.497Z,43.40
2022-09-03T01:05:35.542Z,43.41
2022-09-03T01:06:01.427Z,43.43
2022-09-03T01:06:23.566Z,43.36
2022-09-03T01:06:44.630Z,43.37
2022-09-03T01:07:05.674Z,43.41
2022-09-03T01:07:26.734Z,43.49
2022-09-03T01:07:47.793Z,43.46
2022-09-03T01:08:08.869Z,43.53
2022-09-03T01:08:29.922Z,43.60
2022-09-03T01:08:50.999Z,43.70
2022-09-03T01:09:12.034Z,43.76
2022-09-03T01:09:33.079Z,43.83
2022-09-03T01:09:54.131Z,43.89
2022-09-03T01:10:15.200Z,43.89
2022-09-03T01:10:36.243Z,43.95
2022-09-03T01:10:57.293Z,43.93
2022-09-03T01:11:18.352Z,43.90
2022-09-03T01:11:39.407Z,43.83
2022-09-03T01:12:00.458Z,43.85
2022-09-03T01:12:21.505Z,43.86
2022-09-03T01:12:42.555Z,43.87
2022-09-03T01:13:03.614Z,43.93
2022-09-03T01:13:24.688Z,44.00
2022-09-03T01:13:48.321Z,43.90
2022-09-03T01:14:09.376Z,43.86
2022-09-03T01:14:30.429Z,43.83
2022-09-03T01:14:51.485Z,43.83
2022-09-03T01:15:12.535Z,43.87
2022-09-03T01:15:33.629Z,43.93
2022-09-03T01:15:54.773Z,44.01
2022-09-03T01:16:15.907Z,44.03
2022-09-03T01:16:36.936Z,44.07
2022-09-03T01:16:57.988Z,44.03
2022-09-03T01:17:19.046Z,44.00
2022-09-03T01:17:40.093Z,43.95
2022-09-03T01:18:01.137Z,43.93
2022-09-03T01:18:22.234Z,44.00
2022-09-03T01:18:43.377Z,44.03
2022-09-03T01:19:04.432Z,44.06
2022-09-03T01:19:25.496Z,44.06
2022-09-03T01:19:46.544Z,43.97
2022-09-03T01:20:07.601Z,43.98
2022-09-03T01:20:28.653Z,43.92
2022-09-03T01:20:49.713Z,43.91
2022-09-03T01:21:10.758Z,43.91
2022-09-03T01:21:31.813Z,43.88
2022-09-03T01:21:52.867Z,43.94
2022-09-03T01:22:13.921Z,43.96
2022-09-03T01:22:34.984Z,44.07
2022-09-03T01:22:56.030Z,44.18
2022-09-03T01:23:17.083Z,44.26
2022-09-03T01:23:38.134Z,44.36
2022-09-03T01:23:59.311Z,44.43
2022-09-03T01:24:20.365Z,44.31
2022-09-03T01:24:41.420Z,44.23
2022-09-03T01:25:02.469Z,44.28
2022-09-03T01:25:23.531Z,44.50
2022-09-03T01:25:44.595Z,44.76
2022-09-03T01:26:05.642Z,44.69
2022-09-03T01:26:26.705Z,44.59
2022-09-03T01:26:47.750Z,44.45
2022-09-03T01:27:08.805Z,44.29
2022-09-03T01:27:29.869Z,44.32
2022-09-03T01:27:50.918Z,44.33
2022-09-03T01:28:11.972Z,44.32
2022-09-03T01:28:33.034Z,44.33
2022-09-03T01:28:54.069Z,44.33
2022-09-03T01:29:15.241Z,44.35
2022-09-03T01:29:36.297Z,44.34
2022-09-03T01:30:00.784Z,44.34
2022-09-03T01:30:21.844Z,44.35
2022-09-03T01:30:43.010Z,44.27
2022-09-03T01:31:04.082Z,44.23
2022-09-03T01:31:25.195Z,44.31
2022-09-03T01:31:46.228Z,44.46
2022-09-03T01:32:07.270Z,44.71
2022-09-03T01:32:28.323Z,44.86
2022-09-03T01:32:49.397Z,44.99
2022-09-03T01:33:10.426Z,45.01
2022-09-03T01:33:31.473Z,45.06
2022-09-03T01:33:52.562Z,44.87
2022-09-03T01:34:13.611Z,44.68
2022-09-03T01:34:34.665Z,44.60
2022-09-03T01:34:55.716Z,44.59
2022-09-03T01:35:16.766Z,44.67
2022-09-03T01:35:37.816Z,44.69
2022-09-03T01:35:58.873Z,44.72
2022-09-03T01:36:19.912Z,44.89
2022-09-03T01:36:40.969Z,44.95
2022-09-03T01:37:02.014Z,44.98
2022-09-03T01:37:23.067Z,44.92
2022-09-03T01:37:44.110Z,44.92
2022-09-03T01:38:05.165Z,44.96
2022-09-03T01:38:26.229Z,44.94
2022-09-03T01:38:47.273Z,44.98
2022-09-03T01:39:08.383Z,44.95
2022-09-03T01:39:29.508Z,44.83
2022-09-03T01:39:50.610Z,44.85
2022-09-03T01:40:11.636Z,44.87
2022-09-03T01:40:32.689Z,44.94
2022-09-03T01:40:53.750Z,44.98
2022-09-03T01:41:14.799Z,45.00
2022-09-03T01:41:35.869Z,44.97
2022-09-03T01:41:56.900Z,44.90
2022-09-03T01:42:20.454Z,44.81
2022-09-03T01:42:42.171Z,44.85
2022-09-03T01:43:03.233Z,44.85
2022-09-03T01:43:24.279Z,44.91
2022-09-03T01:43:45.654Z,45.02
2022-09-03T01:44:06.681Z,45.11
2022-09-03T01:44:27.745Z,45.23
2022-09-03T01:44:49.885Z,45.28
2022-09-03T01:45:13.997Z,45.28
2022-09-03T01:45:35.046Z,45.22
2022-09-03T01:45:56.162Z,45.14
2022-09-03T01:46:17.231Z,45.09
2022-09-03T01:46:38.308Z,45.01
2022-09-03T01:46:59.351Z,45.01
2022-09-03T01:47:20.411Z,45.00
2022-09-03T01:47:41.463Z,45.02
2022-09-03T01:48:02.507Z,45.10
2022-09-03T01:48:23.678Z,45.13
2022-09-03T01:48:44.688Z,45.17
2022-09-03T01:49:05.737Z,45.23
2022-09-03T01:49:26.795Z,45.29
2022-09-03T01:49:47.875Z,45.23
2022-09-03T01:50:08.926Z,45.22
2022-09-03T01:50:29.980Z,45.23
2022-09-03T01:50:51.029Z,45.31
2022-09-03T01:51:12.083Z,45.37
2022-09-03T01:51:33.129Z,45.41
2022-09-03T01:51:54.185Z,45.34
2022-09-03T01:52:15.229Z,45.27
2022-09-03T01:52:36.283Z,45.24
2022-09-03T01:52:57.331Z,45.27
2022-09-03T01:53:18.379Z,45.29
2022-09-03T01:53:39.431Z,45.35
2022-09-03T01:54:00.483Z,45.33
2022-09-03T01:54:21.843Z,45.36
2022-09-03T01:54:42.880Z,45.39
2022-09-03T01:55:04.046Z,45.45
2022-09-03T01:55:25.100Z,45.51
2022-09-03T01:55:46.145Z,45.61
2022-09-03T01:56:07.197Z,45.66
2022-09-03T01:56:28.247Z,45.69
2022-09-03T01:56:49.299Z,45.69
2022-09-03T01:57:26.422Z,45.67
2022-09-03T01:57:37.532Z,45.70
2022-09-03T01:57:58.587Z,45.64
2022-09-03T01:58:19.663Z,45.61
2022-09-03T01:58:40.690Z,45.59
2022-09-03T01:59:01.747Z,45.55
2022-09-03T01:59:22.788Z,45.51
2022-09-03T01:59:43.853Z,45.48
2022-09-03T02:00:04.916Z,45.54
2022-09-03T02:00:25.961Z,45.62
2022-09-03T02:00:47.001Z,45.62
2022-09-03T02:01:08.096Z,45.66
2022-09-03T02:01:29.172Z,45.62
2022-09-03T02:01:50.237Z,45.60
2022-09-03T02:02:11.356Z,45.54
2022-09-03T02:02:32.505Z,45.56
2022-09-03T02:02:53.615Z,45.67
2022-09-03T02:03:14.689Z,45.73
2022-09-03T02:03:35.733Z,45.78
2022-09-03T02:04:02.704Z,45.77
2022-09-03T02:04:23.773Z,45.76
2022-09-03T02:04:44.809Z,45.77
2022-09-03T02:05:05.862Z,45.80
2022-09-03T02:05:26.919Z,45.76
2022-09-03T02:05:47.971Z,45.68
2022-09-03T02:06:09.035Z,45.61
2022-09-03T02:06:30.079Z,45.68
2022-09-03T02:06:51.133Z,45.71
2022-09-03T02:07:12.183Z,45.67
2022-09-03T02:07:33.270Z,45.74
2022-09-03T02:07:54.327Z,45.77
2022-09-03T02:08:15.469Z,45.74
2022-09-03T02:08:36.515Z,45.70
2022-09-03T02:08:58.662Z,45.72
2022-09-03T02:09:19.713Z,45.82
2022-09-03T02:09:41.463Z,45.92
2022-09-03T02:10:02.706Z,45.98
2022-09-03T02:10:23.915Z,46.04
2022-09-03T02:10:44.975Z,45.99
2022-09-03T02:11:06.024Z,45.94
2022-09-03T02:11:27.069Z,45.93
2022-09-03T02:11:48.126Z,46.02
2022-09-03T02:12:09.184Z,46.09
2022-09-03T02:12:30.246Z,46.18
2022-09-03T02:12:51.398Z,46.17
2022-09-03T02:13:12.452Z,46.10
2022-09-03T02:13:33.499Z,46.03
2022-09-03T02:13:54.546Z,45.99
2022-09-03T02:14:15.600Z,45.97
2022-09-03T02:14:36.648Z,45.93
2022-09-03T02:14:57.701Z,45.91
2022-09-03T02:15:18.747Z,45.93
2022-09-03T02:15:40.237Z,45.91
2022-09-03T02:16:01.319Z,45.87
2022-09-03T02:16:22.342Z,45.90
2022-09-03T02:16:43.398Z,45.92
2022-09-03T02:17:04.454Z,45.87
2022-09-03T02:17:25.495Z,45.79
2022-09-03T02:17:46.566Z,45.76
2022-09-03T02:18:07.618Z,45.80
2022-09-03T02:18:28.667Z,45.78
2022-09-03T02:18:49.723Z,45.80
2022-09-03T02:19:10.788Z,45.87
2022-09-03T02:19:31.829Z,45.87
2022-09-03T02:19:52.883Z,45.90
2022-09-03T02:20:13.936Z,45.79
2022-09-03T02:20:34.992Z,45.78
2022-09-03T02:20:56.050Z,45.73
2022-09-03T02:21:17.108Z,45.68
2022-09-03T02:21:38.165Z,45.69
2022-09-03T02:21:59.200Z,45.77
2022-09-03T02:22:20.261Z,45.83
2022-09-03T02:22:41.312Z,45.93
2022-09-03T02:23:02.376Z,45.93
2022-09-03T02:23:24.713Z,45.87
2022-09-03T02:23:48.779Z,45.83
2022-09-03T02:24:09.833Z,45.80
2022-09-03T02:24:30.884Z,45.78
2022-09-03T02:24:51.952Z,45.75
2022-09-03T02:25:13.016Z,45.76
2022-09-03T02:25:34.080Z,45.75
2022-09-03T02:25:55.125Z,45.79
2022-09-03T02:26:16.175Z,45.81
2022-09-03T02:26:37.234Z,45.89
2022-09-03T02:26:58.275Z,45.87
2022-09-03T02:27:19.325Z,45.86
2022-09-03T02:27:40.374Z,45.88
2022-09-03T02:28:01.549Z,45.86
2022-09-03T02:28:22.594Z,45.82
2022-09-03T02:28:43.648Z,45.85
2022-09-03T02:29:04.701Z,45.88
2022-09-03T02:29:25.749Z,45.88
2022-09-03T02:29:48.636Z,45.86
2022-09-03T02:30:09.691Z,45.83
2022-09-03T02:30:30.812Z,45.80
2022-09-03T02:30:51.922Z,45.82
2022-09-03T02:31:13.043Z,45.74
2022-09-03T02:31:34.078Z,45.74
2022-09-03T02:31:55.129Z,45.74
2022-09-03T02:32:16.189Z,45.77
2022-09-03T02:32:37.237Z,45.85
2022-09-03T02:32:58.288Z,45.90
2022-09-03T02:33:19.342Z,45.94
2022-09-03T02:33:40.387Z,45.93
2022-09-03T02:34:01.436Z,45.89
2022-09-03T02:34:22.489Z,45.83
2022-09-03T02:34:43.538Z,45.81
2022-09-03T02:35:04.586Z,45.83
2022-09-03T02:35:25.633Z,45.90
2022-09-03T02:35:46.812Z,45.97
2022-09-03T02:36:07.861Z,46.03
2022-09-03T02:36:28.909Z,46.10
2022-09-03T02:36:49.964Z,46.12
2022-09-03T02:37:11.010Z,46.18
2022-09-03T02:37:32.062Z,46.14
2022-09-03T02:37:53.234Z,46.04
2022-09-03T02:38:14.291Z,45.99
2022-09-03T02:38:35.342Z,45.98
2022-09-03T02:38:56.397Z,46.08
2022-09-03T02:39:17.567Z,46.11
2022-09-03T02:39:39.458Z,46.16
2022-09-03T02:40:00.669Z,46.13
2022-09-03T02:40:21.681Z,46.08
2022-09-03T02:40:42.731Z,46.11
2022-09-03T02:41:03.909Z,46.12
2022-09-03T02:41:24.961Z,46.20
2022-09-03T02:41:46.007Z,46.19
2022-09-03T02:42:07.062Z,46.17
2022-09-03T02:42:31.144Z,46.15
2022-09-03T02:42:52.195Z,46.05
2022-09-03T02:43:13.243Z,46.10
2022-09-03T02:43:34.295Z,46.14
2022-09-03T02:43:55.346Z,46.13
2022-09-03T02:44:16.400Z,46.16
2022-09-03T02:44:37.738Z,46.18
2022-09-03T02:44:58.811Z,46.26
2022-09-03T02:45:19.878Z,46.36
2022-09-03T02:45:40.996Z,46.40
2022-09-03T02:46:02.101Z,46.38
2022-09-03T02:46:23.223Z,46.27
2022-09-03T02:46:44.235Z,46.20
2022-09-03T02:47:05.281Z,46.20
2022-09-03T02:47:26.362Z,46.20
2022-09-03T02:47:47.409Z,46.23
2022-09-03T02:48:08.459Z,46.23
2022-09-03T02:48:29.511Z,46.16
2022-09-03T02:48:50.571Z,46.18
2022-09-03T02:49:11.612Z,46.23
2022-09-03T02:49:32.665Z,46.26
2022-09-03T02:49:53.726Z,46.31
2022-09-03T02:50:14.769Z,46.34
2022-09-03T02:50:35.928Z,46.39
2022-09-03T02:50:56.977Z,46.30
2022-09-03T02:51:18.026Z,46.22
2022-09-03T02:51:39.080Z,46.15
2022-09-03T02:52:00.124Z,46.15
2022-09-03T02:52:21.187Z,46.16
2022-09-03T02:52:42.261Z,46.13
2022-09-03T02:53:03.283Z,46.07
2022-09-03T02:53:24.328Z,46.06
2022-09-03T02:53:45.378Z,46.06
2022-09-03T02:54:06.427Z,46.12
2022-09-03T02:54:27.484Z,46.17
2022-09-03T02:54:48.523Z,46.19
2022-09-03T02:55:09.589Z,46.21
2022-09-03T02:55:30.647Z,46.19
2022-09-03T02:55:51.698Z,46.14
2022-09-03T02:56:12.882Z,46.20
2022-09-03T02:56:33.954Z,46.25
2022-09-03T02:56:54.998Z,46.26
2022-09-03T02:57:16.044Z,46.34
2022-09-03T02:57:40.787Z,46.32
2022-09-03T02:58:01.836Z,46.31
2022-09-03T02:58:23.045Z,46.40
2022-09-03T02:58:44.122Z,46.48
2022-09-03T02:59:05.167Z,46.54
2022-09-03T02:59:26.217Z,46.60
2022-09-03T02:59:47.273Z,46.66
2022-09-03T03:00:08.313Z,46.71
2022-09-03T03:00:29.365Z,46.73
2022-09-03T03:00:50.411Z,46.78
2022-09-03T03:01:11.553Z,46.88
2022-09-03T03:01:38.589Z,47.02
2022-09-03T03:02:02.979Z,47.18
2022-09-03T03:02:24.074Z,47.17
2022-09-03T03:02:45.178Z,47.16
2022-09-03T03:03:06.245Z,47.16
2022-09-03T03:03:27.293Z,47.17
2022-09-03T03:03:48.343Z,47.10
2022-09-03T03:04:09.391Z,47.11
2022-09-03T03:04:30.446Z,47.08
2022-09-03T03:04:51.491Z,47.10
2022-09-03T03:05:12.542Z,47.12
2022-09-03T03:05:33.589Z,47.15
2022-09-03T03:05:54.742Z,47.17
2022-09-03T03:06:15.796Z,47.16
2022-09-03T03:06:36.844Z,47.13
2022-09-03T03:06:57.918Z,47.05
2022-09-03T03:07:18.962Z,47.05
2022-09-03T03:07:40.007Z,47.11
2022-09-03T03:08:01.068Z,47.20
2022-09-03T03:08:22.128Z,47.30
2022-09-03T03:08:43.158Z,47.34
2022-09-03T03:09:04.223Z,47.22
2022-09-03T03:09:25.266Z,47.17
2022-09-03T03:09:46.310Z,47.09
2022-09-03T03:10:07.367Z,47.03
2022-09-03T03:10:28.418Z,46.93
2022-09-03T03:10:49.469Z,46.85
2022-09-03T03:11:10.518Z,46.80
2022-09-03T03:11:31.570Z,46.79
2022-09-03T03:11:52.636Z,46.76
2022-09-03T03:12:13.810Z,46.79
2022-09-03T03:12:34.860Z,46.88
2022-09-03T03:12:55.913Z,46.98
2022-09-03T03:13:16.965Z,47.05
2022-09-03T03:13:38.021Z,47.02
2022-09-03T03:13:59.063Z,47.06
2022-09-03T03:14:20.119Z,47.07
2022-09-03T03:14:41.180Z,47.05
2022-09-03T03:15:02.229Z,47.11
2022-09-03T03:15:23.284Z,47.09
2022-09-03T03:15:44.329Z,47.11
2022-09-03T03:16:05.381Z,47.08
2022-09-03T03:16:26.480Z,47.06
2022-09-03T03:16:47.556Z,47.15
2022-09-03T03:17:08.622Z,47.23
2022-09-03T03:17:29.782Z,47.24
2022-09-03T03:17:50.835Z,47.28
2022-09-03T03:18:11.884Z,47.32
2022-09-03T03:18:32.935Z,47.25
2022-09-03T03:18:53.987Z,47.13
2022-09-03T03:19:15.048Z,47.03
2022-09-03T03:19:36.089Z,46.98
2022-09-03T03:19:57.145Z,47.07
2022-09-03T03:20:18.212Z,47.16
2022-09-03T03:20:39.253Z,47.16
2022-09-03T03:21:00.313Z,47.22
2022-09-03T03:21:21.354Z,47.31
2022-09-03T03:21:42.415Z,47.27
2022-09-03T03:22:03.467Z,47.26
2022-09-03T03:22:24.522Z,47.19
2022-09-03T03:22:45.628Z,47.19
2022-09-03T03:23:06.678Z,47.22
2022-09-03T03:23:27.748Z,47.17
2022-09-03T03:23:48.793Z,47.09
2022-09-03T03:24:09.842Z,47.11
2022-09-03T03:24:30.899Z,47.14
2022-09-03T03:24:51.967Z,47.25
2022-09-03T03:25:13.010Z,47.29
2022-09-03T03:25:34.060Z,47.34
2022-09-03T03:25:55.109Z,47.37
2022-09-03T03:26:16.157Z,47.28
2022-09-03T03:26:37.218Z,47.19
2022-09-03T03:26:58.267Z,47.17
2022-09-03T03:27:19.314Z,47.26
2022-09-03T03:27:40.367Z,47.36
2022-09-03T03:28:01.537Z,47.47
2022-09-03T03:28:22.616Z,47.51
2022-09-03T03:28:43.633Z,47.45
2022-09-03T03:29:04.703Z,47.38
2022-09-03T03:29:25.749Z,47.34
2022-09-03T03:29:46.800Z,47.29
2022-09-03T03:30:07.858Z,47.22
2022-09-03T03:30:28.933Z,47.18
2022-09-03T03:30:50.012Z,47.23
2022-09-03T03:31:11.079Z,47.31
2022-09-03T03:31:32.149Z,47.32
2022-09-03T03:31:53.196Z,47.27
2022-09-03T03:32:14.242Z,47.28
2022-09-03T03:32:35.291Z,47.35
2022-09-03T03:32:56.452Z,47.45
2022-09-03T03:33:17.500Z,47.49
2022-09-03T03:33:38.547Z,47.47
2022-09-03T03:33:59.601Z,47.32
2022-09-03T03:34:20.655Z,47.27
2022-09-03T03:34:41.704Z,47.29
2022-09-03T03:35:02.765Z,47.38
2022-09-03T03:35:23.813Z,47.38
2022-09-03T03:35:44.882Z,47.33
2022-09-03T03:36:05.937Z,47.35
2022-09-03T03:36:26.985Z,47.35
2022-09-03T03:36:48.038Z,47.32
2022-09-03T03:37:09.637Z,47.33
2022-09-03T03:37:30.683Z,47.37
2022-09-03T03:37:51.841Z,47.39
2022-09-03T03:38:12.896Z,47.39
2022-09-03T03:38:33.939Z,47.39
2022-09-03T03:38:54.987Z,47.32
2022-09-03T03:39:16.045Z,47.31
2022-09-03T03:39:37.185Z,47.29
2022-09-03T03:39:58.272Z,47.34
2022-09-03T03:40:19.491Z,47.39
2022-09-03T03:40:40.533Z,47.47
2022-09-03T03:41:01.590Z,47.55
2022-09-03T03:41:22.659Z,47.60
2022-09-03T03:41:43.707Z,47.58
2022-09-03T03:42:04.750Z,47.58
2022-09-03T03:42:25.805Z,47.57
2022-09-03T03:42:46.862Z,47.57
2022-09-03T03:43:07.901Z,47.69
2022-09-03T03:43:28.963Z,47.74
2022-09-03T03:43:50.002Z,47.73
2022-09-03T03:44:11.066Z,47.78
2022-09-03T03:44:32.108Z,47.81
2022-09-03T03:44:53.167Z,47.83
2022-09-03T03:45:14.208Z,47.92
2022-09-03T03:45:35.434Z,47.97
2022-09-03T03:45:56.552Z,47.96
2022-09-03T03:46:17.635Z,47.83
2022-09-03T03:46:38.650Z,47.69
2022-09-03T03:46:59.701Z,47.59
2022-09-03T03:47:20.748Z,47.49
2022-09-03T03:47:41.801Z,47.47
2022-09-03T03:48:02.885Z,47.62
2022-09-03T03:48:24.027Z,47.79
2022-09-03T03:48:45.734Z,47.89
2022-09-03T03:49:07.359Z,47.90
2022-09-03T03:49:28.406Z,47.89
2022-09-03T03:49:49.469Z,47.75
2022-09-03T03:50:10.513Z,47.66
2022-09-03T03:50:31.565Z,47.63
2022-09-03T03:50:52.627Z,47.63
2022-09-03T03:51:13.686Z,47.70
2022-09-03T03:51:34.746Z,47.76
2022-09-03T03:51:55.795Z,47.73
2022-09-03T03:52:16.843Z,47.68
2022-09-03T03:52:37.897Z,47.64
2022-09-03T03:52:58.941Z,47.55
2022-09-03T03:53:20.016Z,47.51
2022-09-03T03:53:41.063Z,47.43
2022-09-03T03:54:05.209Z,47.38
2022-09-03T03:54:26.563Z,47.40
2022-09-03T03:54:47.621Z,47.41
2022-09-03T03:55:08.674Z,47.45
2022-09-03T03:55:32.420Z,47.43
2022-09-03T03:55:56.699Z,47.45
2022-09-03T03:56:17.754Z,47.44
2022-09-03T03:56:38.806Z,47.45
2022-09-03T03:56:59.868Z,47.54
2022-09-03T03:57:20.907Z,47.57
2022-09-03T03:57:41.957Z,47.57
2022-09-03T03:58:03.024Z,47.53
2022-09-03T03:58:24.143Z,47.57
2022-09-03T03:58:45.193Z,47.57
2022-09-03T03:59:06.245Z,47.54
2022-09-03T03:59:27.295Z,47.51
2022-09-03T03:59:48.362Z,47.48
2022-09-03T04:00:09.411Z,47.47
2022-09-03T04:00:30.459Z,47.46
2022-09-03T04:00:51.624Z,47.53
2022-09-03T04:01:12.787Z,47.64
2022-09-03T04:01:33.930Z,47.66
2022-09-03T04:01:55.482Z,47.62
2022-09-03T04:02:16.622Z,47.62
2022-09-03T04:02:39.267Z,47.68
2022-09-03T04:03:00.405Z,47.71
2022-09-03T04:03:21.477Z,47.71
2022-09-03T04:03:42.533Z,47.77
2022-09-03T04:04:03.580Z,47.76
2022-09-03T04:04:24.633Z,47.81
2022-09-03T04:04:45.685Z,47.79
2022-09-03T04:05:06.743Z,47.77
2022-09-03T04:05:33.725Z,47.68
2022-09-03T04:05:54.886Z,47.62
2022-09-03T04:06:15.937Z,47.62
2022-09-03T04:06:36.983Z,47.67
2022-09-03T04:06:58.036Z,47.69
2022-09-03T04:07:19.095Z,47.69
2022-09-03T04:07:40.140Z,47.73
2022-09-03T04:08:01.200Z,47.70
2022-09-03T04:08:22.453Z,47.74
2022-09-03T04:08:43.495Z,47.86
2022-09-03T04:09:05.644Z,47.93
2022-09-03T04:09:26.693Z,47.92
2022-09-03T04:09:47.757Z,47.96
2022-09-03T04:10:08.806Z,47.96
2022-09-03T04:10:29.868Z,47.97
2022-09-03T04:10:50.914Z,47.93
2022-09-03T04:11:11.963Z,47.98
2022-09-03T04:11:33.011Z,48.01
2022-09-03T04:11:54.064Z,48.11
2022-09-03T04:12:15.112Z,48.19
2022-09-03T04:12:36.164Z,48.29
2022-09-03T04:12:57.221Z,48.33
2022-09-03T04:13:18.279Z,48.33
2022-09-03T04:13:39.365Z,48.27
2022-09-03T04:14:00.411Z,48.15
2022-09-03T04:14:21.470Z,48.04
2022-09-03T04:14:42.515Z,47.97
2022-09-03T04:15:03.563Z,47.91
2022-09-03T04:15:24.618Z,47.96
2022-09-03T04:15:45.666Z,48.00
2022-09-03T04:16:06.735Z,47.99
2022-09-03T04:16:27.877Z,47.97
2022-09-03T04:16:48.984Z,47.97
2022-09-03T04:17:10.011Z,48.00
2022-09-03T04:17:31.069Z,47.98
2022-09-03T04:17:52.126Z,47.98
2022-09-03T04:18:13.179Z,47.93
2022-09-03T04:18:34.231Z,47.95
2022-09-03T04:18:55.426Z,47.98
2022-09-03T04:19:16.483Z,48.03
2022-09-03T04:19:37.525Z,48.11
2022-09-03T04:19:58.577Z,48.21
2022-09-03T04:20:19.638Z,48.21
2022-09-03T04:20:40.701Z,48.14
2022-09-03T04:21:01.761Z,48.07
2022-09-03T04:21:22.817Z,48.03
2022-09-03T04:21:43.858Z,48.00
2022-09-03T04:22:04.912Z,48.01
2022-09-03T04:22:25.970Z,48.14
2022-09-03T04:22:50.242Z,48.22
2022-09-03T04:23:12.938Z,48.20
2022-09-03T04:23:33.988Z,48.10
2022-09-03T04:23:55.080Z,48.11
2022-09-03T04:24:16.128Z,48.12
2022-09-03T04:24:37.179Z,48.15
2022-09-03T04:24:58.231Z,48.14
2022-09-03T04:25:19.279Z,48.14
2022-09-03T04:25:40.340Z,48.17
2022-09-03T04:26:01.392Z,48.15
2022-09-03T04:26:22.439Z,48.16
2022-09-03T04:26:43.493Z,48.14
2022-09-03T04:27:04.542Z,48.23
2022-09-03T04:27:25.591Z,48.27
2022-09-03T04:27:46.638Z,48.41
2022-09-03T04:28:07.697Z,48.53
2022-09-03T04:28:29.434Z,48.58
2022-09-03T04:28:51.546Z,48.46
2022-09-03T04:29:12.743Z,48.43
2022-09-03T04:29:33.800Z,48.43
2022-09-03T04:29:54.850Z,48.56
2022-09-03T04:30:15.910Z,48.58
2022-09-03T04:30:37.036Z,48.43
2022-09-03T04:30:58.184Z,48.36
2022-09-03T04:31:19.290Z,48.32
2022-09-03T04:31:40.457Z,48.21
2022-09-03T04:32:01.540Z,48.18
2022-09-03T04:32:22.616Z,48.15
2022-09-03T04:32:43.662Z,48.25
2022-09-03T04:33:04.720Z,48.38